Time;durP1;ratioP1;P1;durP2;ratioP2;P2;SDS_P1;SDS_P2;PMS_P1;PMS_P2;Temp;Humidity;BMP_temperature;BMP_pressure;BME280_temperature;BME280_humidity;BME280_pressure;Samples;Min_cycle;Max_cycle;Signal;HPM_P1;HPM_P2
2023/07/13 00:01:49;;;;;;;4.30;1.70;;;;;;;17.52;76.77;100072.63;223653;1266;141584;-88
2023/07/13 00:06:50;;;;;;;6.80;2.40;;;;;;;17.40;77.23;100087.91;224189;1265;138585;-88
2023/07/13 00:11:53;;;;;;;3.80;2.00;;;;;;;17.33;77.69;100094.25;223576;1266;140368;-88
2023/07/13 00:16:53;;;;;;;6.40;2.70;;;;;;;17.24;78.41;100098.95;224266;1266;139348;-88
2023/07/13 00:21:55;;;;;;;5.60;2.10;;;;;;;17.19;78.93;100105.27;223691;1266;140915;-88
2023/07/13 00:26:56;;;;;;;6.70;2.20;;;;;;;17.16;78.79;100113.92;224102;1266;139207;-88
2023/07/13 00:31:57;;;;;;;4.60;1.90;;;;;;;17.11;79.18;100128.07;223577;1266;142343;-88
2023/07/13 00:36:58;;;;;;;3.60;1.70;;;;;;;17.04;79.69;100125.52;224301;1265;137329;-88
2023/07/13 00:41:59;;;;;;;5.90;2.00;;;;;;;16.98;79.94;100115.23;223834;1265;140170;-88
2023/07/13 00:46:59;;;;;;;4.20;2.50;;;;;;;16.93;80.15;100104.13;224161;1266;138647;-88
2023/07/13 00:52:05;;;;;;;6.40;1.90;;;;;;;16.88;79.96;100100.73;223689;1266;140517;-88
2023/07/13 00:57:11;;;;;;;3.60;1.70;;;;;;;16.88;79.79;100090.58;224182;1266;139371;-88
2023/07/13 01:02:12;;;;;;;5.40;2.00;;;;;;;16.86;80.30;100092.44;223591;1265;141668;-88
2023/07/13 01:07:13;;;;;;;4.50;2.10;;;;;;;16.84;80.32;100088.75;224220;1267;139330;-89
2023/07/13 01:12:13;;;;;;;5.50;2.00;;;;;;;16.85;79.88;100098.89;223752;1269;140404;-88
2023/07/13 01:17:15;;;;;;;3.80;1.50;;;;;;;16.86;80.33;100102.13;224262;1267;139439;-89
2023/07/13 01:22:17;;;;;;;7.70;1.90;;;;;;;16.87;80.49;100107.13;223614;1266;141188;-88
2023/07/13 01:27:23;;;;;;;3.40;1.40;;;;;;;16.85;80.04;100111.84;224086;1267;138779;-89
2023/07/13 01:32:25;;;;;;;4.10;1.80;;;;;;;16.88;80.35;100116.86;223555;1265;138960;-89
2023/07/13 01:37:26;;;;;;;4.20;2.10;;;;;;;16.91;80.79;100117.75;224151;1269;138711;-89
2023/07/13 01:42:28;;;;;;;4.40;1.90;;;;;;;16.95;80.94;100110.93;223707;1269;140044;-89
2023/07/13 01:47:30;;;;;;;4.30;1.80;;;;;;;16.99;81.44;100111.17;224263;1265;109150;-89
2023/07/13 01:52:31;;;;;;;3.40;1.80;;;;;;;17.02;81.15;100108.23;223596;1266;140644;-89
2023/07/13 01:57:31;;;;;;;4.00;1.90;;;;;;;17.06;81.25;100103.65;224145;1266;139774;-88
2023/07/13 02:02:31;;;;;;;7.10;3.70;;;;;;;17.10;81.26;100095.04;223581;1265;142892;-90
2023/07/13 02:07:32;;;;;;;6.30;2.70;;;;;;;17.17;81.77;100087.84;224189;1266;139179;-88
2023/07/13 02:12:33;;;;;;;6.00;2.30;;;;;;;17.25;81.80;100088.21;223658;1266;140987;-89
2023/07/13 02:17:34;;;;;;;4.40;2.50;;;;;;;17.30;82.17;100079.60;224236;1265;110696;-89
2023/07/13 02:22:35;;;;;;;5.70;2.80;;;;;;;17.34;82.69;100088.66;223681;1267;140110;-88
2023/07/13 02:27:35;;;;;;;4.20;2.20;;;;;;;17.38;82.33;100093.76;224287;1265;138522;-89
2023/07/13 02:32:35;;;;;;;6.30;2.60;;;;;;;17.41;81.88;100102.05;223648;1267;142739;-90
2023/07/13 02:37:36;;;;;;;5.50;2.70;;;;;;;17.44;82.27;100114.94;224248;1266;139162;-87
2023/07/13 02:42:36;;;;;;;5.50;2.70;;;;;;;17.45;82.98;100112.29;223727;1265;140052;-88
2023/07/13 02:47:37;;;;;;;4.50;2.00;;;;;;;17.47;83.29;100112.80;224390;1266;94263;-88
2023/07/13 02:52:37;;;;;;;8.20;3.60;;;;;;;17.51;83.19;100120.36;223608;1266;139784;-88
2023/07/13 02:57:38;;;;;;;5.90;2.80;;;;;;;17.54;84.34;100119.49;224122;1267;139490;-88
2023/07/13 03:02:39;;;;;;;6.70;3.10;;;;;;;17.55;84.27;100119.45;223579;1265;140009;-88
2023/07/13 03:07:39;;;;;;;6.30;3.30;;;;;;;17.58;84.32;100117.33;224141;1266;138852;-87
2023/07/13 03:12:39;;;;;;;6.50;3.00;;;;;;;17.57;84.28;100116.64;223630;1265;139920;-88
2023/07/13 03:17:40;;;;;;;5.70;3.20;;;;;;;17.57;84.92;100126.66;224299;1266;94231;-88
2023/07/13 03:22:41;;;;;;;6.50;3.10;;;;;;;17.52;85.04;100123.42;223664;1267;141759;-88
2023/07/13 03:27:42;;;;;;;4.80;2.20;;;;;;;17.51;84.89;100118.52;224171;1266;138806;-88
2023/07/13 03:32:42;;;;;;;5.30;2.60;;;;;;;17.50;84.82;100125.38;223704;1265;141170;-88
2023/07/13 03:37:43;;;;;;;5.80;2.70;;;;;;;17.49;86.51;100113.55;224245;1267;138458;-88
2023/07/13 03:42:43;;;;;;;4.50;2.50;;;;;;;17.48;85.36;100110.48;223604;1265;142865;-88
2023/07/13 03:47:43;;;;;;;6.60;2.90;;;;;;;17.51;84.45;100111.05;224239;1265;94568;-91
2023/07/13 03:52:45;;;;;;;5.80;2.80;;;;;;;17.55;86.00;100127.58;223719;1266;140597;-89
2023/07/13 03:57:45;;;;;;;6.60;2.70;;;;;;;17.55;86.76;100134.80;224131;1266;138544;-88
2023/07/13 04:02:47;;;;;;;7.70;3.40;;;;;;;17.58;87.19;100147.15;223566;1265;139933;-88
2023/07/13 04:07:48;;;;;;;6.50;3.20;;;;;;;17.61;88.19;100153.59;224101;1266;138439;-88
2023/07/13 04:12:49;;;;;;;6.10;2.90;;;;;;;17.63;88.00;100156.65;223600;1265;139857;-88
2023/07/13 04:17:49;;;;;;;6.90;3.20;;;;;;;17.67;88.56;100148.38;224242;1266;94274;-88
2023/07/13 04:22:49;;;;;;;6.30;3.10;;;;;;;17.72;88.82;100149.70;223527;1265;140361;-88
2023/07/13 04:27:50;;;;;;;7.10;3.00;;;;;;;17.76;89.05;100147.72;224100;1266;138542;-88
2023/07/13 04:32:52;;;;;;;8.00;4.30;;;;;;;17.81;89.19;100159.83;223697;1265;140202;-88
2023/07/13 04:37:53;;;;;;;7.60;3.90;;;;;;;17.89;89.91;100162.36;224141;1265;139040;-88
2023/07/13 04:42:53;;;;;;;7.70;3.90;;;;;;;17.98;90.53;100158.96;223711;1265;139574;-88
2023/07/13 04:47:54;;;;;;;7.50;3.70;;;;;;;18.10;91.12;100155.98;224327;1265;94270;-88
2023/07/13 04:52:54;;;;;;;8.20;4.50;;;;;;;18.24;91.58;100158.97;223621;1265;139644;-88
2023/07/13 04:57:54;;;;;;;8.00;4.80;;;;;;;18.38;91.82;100155.23;224137;1265;138602;-88
2023/07/13 05:02:57;;;;;;;7.60;4.20;;;;;;;18.52;91.88;100157.34;223607;1265;139668;-88
2023/07/13 05:07:57;;;;;;;9.60;5.00;;;;;;;18.67;92.12;100167.70;224058;1266;138592;-88
2023/07/13 05:12:58;;;;;;;9.50;4.90;;;;;;;18.82;93.12;100180.52;223663;1265;139255;-89
2023/07/13 05:17:58;;;;;;;11.50;5.50;;;;;;;18.94;93.05;100187.45;224295;1265;94383;-89
2023/07/13 05:22:58;;;;;;;12.10;6.90;;;;;;;19.05;92.91;100186.03;223527;1266;140657;-89
2023/07/13 05:27:59;;;;;;;7.50;4.50;;;;;;;19.16;92.71;100188.14;224199;1265;138712;-89
2023/07/13 05:32:59;;;;;;;8.60;5.30;;;;;;;19.28;92.06;100197.09;223599;1265;140897;-88
2023/07/13 05:38:00;;;;;;;8.40;4.80;;;;;;;19.39;91.73;100204.67;224263;1265;138449;-88
2023/07/13 05:43:00;;;;;;;9.80;4.80;;;;;;;19.46;91.51;100208.11;223612;1266;139410;-89
2023/07/13 05:48:01;;;;;;;8.60;4.70;;;;;;;19.53;91.50;100208.63;224263;1265;94284;-88
2023/07/13 05:53:01;;;;;;;10.80;5.10;;;;;;;19.58;91.05;100219.80;223497;1265;139143;-88
2023/07/13 05:58:02;;;;;;;9.00;5.50;;;;;;;19.63;91.37;100225.17;224203;1265;138868;-89
2023/07/13 06:03:02;;;;;;;10.20;5.70;;;;;;;19.66;91.45;100231.32;223683;1265;140646;-89
2023/07/13 06:08:05;;;;;;;10.80;5.40;;;;;;;19.69;91.54;100242.00;224279;1265;138915;-89
2023/07/13 06:13:05;;;;;;;9.30;5.30;;;;;;;19.74;91.28;100244.58;223617;1265;141693;-88
2023/07/13 06:18:06;;;;;;;11.30;6.80;;;;;;;19.79;91.76;100257.57;224235;1265;94247;-88
2023/07/13 06:23:06;;;;;;;9.70;6.20;;;;;;;19.82;91.93;100265.39;223670;1265;139723;-91
2023/07/13 06:28:06;;;;;;;11.40;6.30;;;;;;;19.86;92.15;100270.80;224212;1265;138351;-89
2023/07/13 06:33:07;;;;;;;13.40;6.50;;;;;;;19.90;92.33;100268.13;223568;1265;142403;-89
2023/07/13 06:38:08;;;;;;;23.00;8.40;;;;;;;19.99;92.46;100271.42;224219;1265;139028;-88
2023/07/13 06:43:09;;;;;;;23.90;8.30;;;;;;;20.08;91.97;100273.34;223568;1265;139982;-89
2023/07/13 06:48:09;;;;;;;14.40;7.10;;;;;;;20.18;92.30;100268.33;224283;1265;94330;-89
2023/07/13 06:53:12;;;;;;;18.40;6.80;;;;;;;20.30;92.05;100275.45;223545;1265;141414;-89
2023/07/13 06:58:12;;;;;;;11.00;6.40;;;;;;;20.47;91.62;100276.28;224076;1265;138852;-88
2023/07/13 07:03:13;;;;;;;12.50;6.40;;;;;;;20.68;91.42;100279.75;223657;1265;140872;-88
2023/07/13 07:08:14;;;;;;;11.40;6.80;;;;;;;20.99;91.83;100277.86;224351;1265;138757;-88
2023/07/13 07:13:15;;;;;;;11.70;6.90;;;;;;;21.42;91.17;100277.26;223677;1265;141340;-88
2023/07/13 07:18:15;;;;;;;10.30;5.10;;;;;;;21.97;90.33;100275.78;224343;1265;94319;-88
2023/07/13 07:23:15;;;;;;;10.10;4.50;;;;;;;22.66;88.91;100276.38;223736;1265;140051;-89
2023/07/13 07:28:19;;;;;;;7.50;3.80;;;;;;;23.32;84.09;100277.04;224163;1265;138660;-88
2023/07/13 07:33:20;;;;;;;6.20;2.60;;;;;;;23.86;78.50;100273.98;223702;1265;142040;-89
2023/07/13 07:38:21;;;;;;;7.40;3.30;;;;;;;24.41;76.75;100268.04;224202;1265;140030;-89
2023/07/13 07:43:21;;;;;;;5.10;2.00;;;;;;;25.02;69.76;100264.30;223772;1265;140829;-89
2023/07/13 07:48:22;;;;;;;5.30;2.20;;;;;;;25.57;69.27;100264.32;224398;1265;138141;-90
2023/07/13 07:53:22;;;;;;;6.40;2.00;;;;;;;26.37;67.30;100271.27;223769;1265;139843;-93
2023/07/13 07:58:23;;;;;;;5.20;2.40;;;;;;;26.82;64.20;100273.91;224162;1265;138814;-88
2023/07/13 08:03:23;;;;;;;8.30;2.60;;;;;;;27.23;63.64;100276.71;223793;1265;141494;-92
2023/07/13 08:08:24;;;;;;;7.50;2.20;;;;;;;27.79;63.18;100279.39;224235;1265;137861;-90
2023/07/13 08:13:25;;;;;;;6.50;2.30;;;;;;;28.23;58.80;100284.44;223566;1265;139388;-92
2023/07/13 08:18:27;;;;;;;5.00;2.10;;;;;;;28.68;58.19;100284.92;224260;1265;138030;-92
2023/07/13 08:23:28;;;;;;;5.20;1.90;;;;;;;29.40;56.42;100277.95;223771;1265;139234;-90
2023/07/13 08:28:29;;;;;;;6.40;2.80;;;;;;;30.11;55.15;100280.95;224342;1265;137904;-89
2023/07/13 08:33:29;;;;;;;7.80;2.40;;;;;;;30.43;53.12;100277.00;223698;1265;141675;-90
2023/07/13 08:38:29;;;;;;;7.10;2.30;;;;;;;31.17;52.28;100276.45;224190;1265;139399;-90
2023/07/13 08:43:34;;;;;;;7.60;2.20;;;;;;;31.65;49.96;100281.02;223798;1265;139856;-90
2023/07/13 08:48:41;;;;;;;9.00;2.40;;;;;;;31.71;49.30;100280.39;224156;1265;138114;-93
2023/07/13 08:53:57;;;;;;;6.00;2.70;;;;;;;31.69;48.44;100279.15;223800;1265;141211;-89
2023/07/13 08:59:11;;;;;;;6.50;2.50;;;;;;;31.48;47.56;100276.00;223718;1265;139395;-90
2023/07/13 09:04:18;;;;;;;8.00;3.10;;;;;;;30.96;46.15;100273.82;224154;1265;138040;-90
2023/07/13 09:09:56;;;;;;;9.90;3.40;;;;;;;30.44;46.94;100276.14;223593;1265;139463;-90
2023/07/13 09:14:59;;;;;;;7.80;2.90;;;;;;;30.17;46.72;100278.95;224244;1265;140068;-91
2023/07/13 09:20:06;;;;;;;7.40;2.50;;;;;;;29.86;47.06;100276.93;223638;1265;140547;-89
2023/07/13 09:25:30;;;;;;;9.00;2.80;;;;;;;29.66;47.53;100276.40;224219;1265;138357;-90
2023/07/13 09:30:42;;;;;;;7.00;2.70;;;;;;;29.44;47.77;100281.77;223593;1266;139662;-92
2023/07/13 09:35:42;;;;;;;11.00;3.80;;;;;;;29.46;48.48;100284.63;224253;1265;107059;-89
2023/07/13 09:40:54;;;;;;;13.30;3.50;;;;;;;29.62;48.88;100277.64;223562;1265;227652;-90
2023/07/13 09:45:55;;;;;;;9.50;3.60;;;;;;;29.58;48.21;100281.16;224058;1265;138571;-90
2023/07/13 09:51:06;;;;;;;13.40;4.00;;;;;;;29.66;49.33;100279.17;223579;1265;139164;-91
2023/07/13 09:56:19;;;;;;;7.80;3.50;;;;;;;30.38;48.40;100276.23;224245;1265;138101;-89
2023/07/13 10:01:39;;;;;;;11.80;3.40;;;;;;;31.18;47.46;100274.90;223708;1265;140116;-89
2023/07/13 10:06:43;;;;;;;7.90;3.70;;;;;;;31.60;45.95;100279.80;224161;1265;138094;-86
2023/07/13 10:11:45;;;;;;;8.40;3.40;;;;;;;32.16;45.25;100283.21;223882;1265;139110;-92
2023/07/13 10:16:49;;;;;;;7.00;3.20;;;;;;;32.71;43.82;100283.29;224163;1265;137995;-89
2023/07/13 10:22:13;;;;;;;9.90;3.20;;;;;;;33.31;43.04;100283.67;223502;1265;140241;-89
2023/07/13 10:27:19;;;;;;;6.10;2.90;;;;;;;33.61;41.77;100287.09;224155;1265;137813;-90
2023/07/13 10:38:15;;;;;;;8.80;2.80;;;;;;;33.79;41.35;100283.69;223936;1268;137832;-90
2023/07/13 10:43:27;;;;;;;6.80;3.30;;;;;;;33.59;39.75;100289.30;223404;1268;139905;-91
2023/07/13 10:48:32;;;;;;;6.40;2.90;;;;;;;33.17;40.11;100287.35;223914;1268;138148;-89
2023/07/13 10:53:36;;;;;;;7.90;2.70;;;;;;;33.02;41.10;100283.99;223493;1268;139194;-92
2023/07/13 10:58:38;;;;;;;;;;;;;;;33.35;40.09;100277.82;223898;1268;138130;-88
2023/07/13 11:03:58;;;;;;;5.50;2.20;;;;;;;33.47;39.81;100278.88;223486;1268;127394;-91
2023/07/13 11:09:17;;;;;;;4.50;2.20;;;;;;;33.17;36.69;100274.80;223318;1268;139863;-94
2023/07/13 11:14:29;;;;;;;16.80;4.70;;;;;;;32.57;35.81;100281.61;224008;1265;137801;-91
2023/07/13 11:19:39;;;;;;;6.70;2.40;;;;;;;31.88;36.04;100284.18;223791;1265;140847;-91
2023/07/13 11:25:23;;;;;;;4.70;1.60;;;;;;;31.67;36.39;100289.86;224214;1265;137826;-92
2023/07/13 11:30:51;;;;;;;6.50;2.10;;;;;;;31.75;35.76;100289.06;223676;1265;141103;-94
2023/07/13 11:35:58;;;;;;;7.30;1.90;;;;;;;31.41;35.02;100287.92;224360;1265;107781;-91
2023/07/13 11:41:16;;;;;;;6.10;1.90;;;;;;;31.23;36.94;100274.68;223638;1265;140336;-95
2023/07/13 11:46:24;;;;;;;12.00;3.10;;;;;;;31.58;38.31;100275.47;224125;1265;137996;-89
2023/07/13 11:51:55;;;;;;;9.50;2.70;;;;;;;32.07;37.45;100273.70;223634;1265;140246;-89
2023/07/13 11:57:01;;;;;;;5.00;1.90;;;;;;;32.41;36.69;100274.20;224126;1265;137854;-87
2023/07/13 12:02:03;;;;;;;7.00;2.50;;;;;;;32.74;36.83;100266.75;223681;1265;141333;-92
2023/07/13 12:07:08;;;;;;;5.80;2.00;;;;;;;33.05;36.28;100272.70;224266;1265;137820;-90
2023/07/13 12:12:15;;;;;;;6.60;1.80;;;;;;;33.32;34.88;100273.38;223910;1265;139134;-90
2023/07/13 12:17:25;;;;;;;5.50;2.30;;;;;;;33.23;32.90;100272.23;224490;1264;138911;-90
2023/07/13 12:22:25;;;;;;;6.80;1.90;;;;;;;33.16;34.42;100275.45;223789;1264;137986;-91
2023/07/13 12:27:28;;;;;;;3.40;1.60;;;;;;;33.54;34.43;100268.71;224393;1264;138331;-91
2023/07/13 12:32:30;;;;;;;3.60;1.50;;;;;;;33.50;32.50;100265.49;223958;1265;139446;-88
2023/07/13 12:37:35;;;;;;;5.30;1.80;;;;;;;33.48;32.85;100259.14;224413;1264;137811;-89
2023/07/13 12:42:39;;;;;;;;;;;;;;;33.38;32.92;100259.05;223960;1263;139598;-91
2023/07/13 12:47:47;;;;;;;10.30;1.90;;;;;;;33.43;32.67;100256.65;224495;1264;97010;-90
2023/07/13 12:52:53;;;;;;;3.00;1.50;;;;;;;33.33;31.36;100258.33;223804;1264;140320;-90
2023/07/13 12:57:58;;;;;;;4.20;1.50;;;;;;;33.17;31.26;100267.07;224360;1264;137986;-92
2023/07/13 13:03:06;;;;;;;4.40;1.70;;;;;;;33.08;30.58;100263.75;224056;1264;140901;-91
2023/07/13 13:14:06;;;;;;;4.20;1.80;;;;;;;33.09;30.91;100251.91;223576;1267;280992;-91
2023/07/13 13:19:16;;;;;;;6.00;1.70;;;;;;;33.17;30.23;100257.42;223571;1266;139339;-92
2023/07/13 13:24:20;;;;;;;2.60;1.20;;;;;;;33.10;29.84;100244.39;224083;1267;98194;-90
2023/07/13 13:29:24;;;;;;;4.10;1.40;;;;;;;33.10;30.58;100253.00;223575;1267;139399;-90
2023/07/13 13:34:25;;;;;;;4.00;1.40;;;;;;;33.17;29.55;100253.64;223947;1266;137982;-91
2023/07/13 13:39:43;;;;;;;6.60;1.80;;;;;;;33.12;30.35;100246.91;223517;1267;138544;-91
2023/07/13 13:44:44;;;;;;;8.10;2.20;;;;;;;32.92;28.28;100252.36;224465;1264;137990;-89
2023/07/13 13:49:47;;;;;;;4.00;1.70;;;;;;;32.52;28.74;100257.62;223942;1264;139137;-93
2023/07/13 13:54:47;;;;;;;4.20;1.50;;;;;;;32.38;29.42;100265.26;224484;1263;137755;-90
2023/07/13 13:59:48;;;;;;;3.70;1.70;;;;;;;32.37;30.45;100261.02;224069;1264;140171;-92
2023/07/13 14:04:54;;;;;;;6.40;1.80;;;;;;;32.34;30.39;100263.31;224374;1264;137613;-91
2023/07/13 14:10:00;;;;;;;4.70;2.10;;;;;;;32.30;30.35;100263.46;224009;1264;139732;-90
2023/07/13 14:15:00;;;;;;;4.10;1.40;;;;;;;32.22;29.59;100263.61;224530;1264;138144;-96
2023/07/13 14:20:04;;;;;;;7.60;1.50;;;;;;;31.91;29.83;100261.70;224052;1263;139366;-93
2023/07/13 14:25:05;;;;;;;6.20;1.30;;;;;;;31.57;30.87;100260.08;224616;1264;137781;-91
2023/07/13 14:30:14;;;;;;;3.60;1.20;;;;;;;31.43;31.91;100264.07;223983;1263;140302;-87
2023/07/13 14:35:18;;;;;;;3.60;1.40;;;;;;;31.59;32.25;100268.99;224557;1264;137948;-89
2023/07/13 14:40:31;;;;;;;3.40;1.40;;;;;;;31.67;31.04;100270.16;223935;1265;139592;-92
2023/07/13 14:45:32;;;;;;;5.30;1.60;;;;;;;31.58;31.23;100263.84;224373;1265;138700;-93
2023/07/13 14:50:32;;;;;;;6.00;2.20;;;;;;;31.35;31.52;100267.16;223881;1265;139174;-92
2023/07/13 14:55:33;;;;;;;3.40;1.40;;;;;;;31.17;31.32;100265.23;224490;1264;138002;-92
2023/07/13 15:00:37;;;;;;;2.20;1.40;;;;;;;30.99;30.91;100266.16;223959;1264;142257;-89
2023/07/13 15:05:37;;;;;;;4.80;1.70;;;;;;;31.05;31.50;100264.79;224477;1266;94706;-95
2023/07/13 15:10:38;;;;;;;5.50;1.60;;;;;;;31.13;31.25;100256.23;224043;1264;140478;-90
2023/07/13 15:15:43;;;;;;;3.40;1.30;;;;;;;31.00;30.36;100256.08;224470;1265;138146;-92
2023/07/13 15:20:45;;;;;;;;;;;;;;;30.82;31.15;100259.84;223871;1266;139356;-92
2023/07/13 15:25:45;;;;;;;4.80;1.70;;;;;;;30.77;31.39;100263.52;224584;1264;124444;-90
2023/07/13 15:30:50;;;;;;;3.60;1.40;;;;;;;30.76;32.56;100261.83;224135;1264;139810;-93
2023/07/13 15:35:54;;;;;;;5.80;1.90;;;;;;;30.78;32.40;100264.24;224579;1265;99217;-94
2023/07/13 15:40:56;;;;;;;4.80;1.90;;;;;;;30.64;30.94;100265.50;224027;1264;139802;-93
2023/07/13 15:45:57;;;;;;;5.90;1.90;;;;;;;30.32;31.32;100265.98;224356;1266;137886;-93
2023/07/13 15:51:01;;;;;;;3.80;1.60;;;;;;;30.03;32.54;100262.26;223873;1264;139886;-95
2023/07/13 15:56:16;;;;;;;8.20;2.30;;;;;;;29.80;33.12;100258.39;224370;1263;137708;-93
2023/07/13 16:01:18;;;;;;;4.10;1.50;;;;;;;29.51;32.87;100257.01;223889;1264;139568;-93
2023/07/13 16:06:22;;;;;;;5.20;2.20;;;;;;;29.22;33.88;100257.05;224648;1264;94269;-91
2023/07/13 16:11:25;;;;;;;4.40;1.90;;;;;;;29.09;32.50;100259.66;223890;1264;139336;-89
2023/07/13 16:16:28;;;;;;;5.30;1.90;;;;;;;28.70;32.72;100264.60;224626;1264;137911;-94
2023/07/13 16:21:45;;;;;;;4.30;1.90;;;;;;;28.30;32.92;100269.42;223875;1264;140585;-92
2023/07/13 16:26:48;;;;;;;6.40;1.90;;;;;;;28.06;34.10;100273.52;224507;1263;137955;-95
2023/07/13 16:32:02;;;;;;;6.60;1.90;;;;;;;27.91;35.09;100274.52;223919;1264;138811;-92
2023/07/13 16:37:11;;;;;;;6.40;2.10;;;;;;;27.73;35.08;100274.97;224331;1266;137972;-93
2023/07/13 16:42:12;;;;;;;5.60;1.90;;;;;;;27.54;35.57;100282.30;223959;1265;139816;-91
2023/07/13 16:47:19;;;;;;;5.50;1.90;;;;;;;27.28;35.72;100283.00;224709;1264;137606;-93
2023/07/13 16:52:19;;;;;;;4.70;1.80;;;;;;;27.11;36.37;100285.73;223967;1265;139615;-89
2023/07/13 16:57:33;;;;;;;4.40;1.70;;;;;;;26.91;36.73;100291.05;224419;1264;138149;-93
2023/07/13 17:02:38;;;;;;;4.60;1.80;;;;;;;26.77;36.69;100285.48;223893;1264;139232;-91
2023/07/13 17:08:31;;;;;;;;;;;;;;;;;;;;;
2023/07/13 17:13:39;;;;;;;4.30;1.70;;;;;;;26.40;37.23;100284.67;222966;1271;139196;-95
2023/07/13 17:19:23;;;;;;;4.80;2.10;;;;;;;26.26;37.68;100283.92;224320;1264;136644;-94
2023/07/13 17:24:34;;;;;;;7.10;1.80;;;;;;;26.08;37.50;100288.98;224539;1264;380909;-95
2023/07/13 17:29:35;;;;;;;3.50;1.90;;;;;;;25.90;38.19;100290.29;224004;1266;139726;-94
2023/07/13 17:34:45;;;;;;;5.70;1.80;;;;;;;25.78;39.63;100293.58;224554;1265;137973;-92
2023/07/13 17:39:46;;;;;;;5.00;2.00;;;;;;;25.64;39.66;100299.56;223979;1267;139451;-95
2023/07/13 17:44:48;;;;;;;6.10;2.00;;;;;;;25.49;39.17;100300.38;224719;1264;137778;-94
2023/07/13 17:49:49;;;;;;;6.10;2.00;;;;;;;25.33;39.70;100300.96;224134;1264;139160;-96
2023/07/13 17:54:50;;;;;;;8.80;1.90;;;;;;;25.16;39.60;100306.93;224590;1264;137988;-96
2023/07/13 17:59:51;;;;;;;5.20;1.90;;;;;;;25.02;39.99;100307.73;224061;1264;138853;-94
2023/07/13 18:04:52;;;;;;;7.00;1.60;;;;;;;24.89;40.73;100308.47;224615;1264;137845;-94
2023/07/13 18:09:52;;;;;;;2.40;1.50;;;;;;;24.76;41.20;100312.83;223909;1264;141019;-95
2023/07/13 18:14:53;;;;;;;5.30;1.70;;;;;;;24.63;42.14;100314.81;224668;1264;137860;-95
2023/07/13 18:19:54;;;;;;;6.50;1.70;;;;;;;24.56;42.08;100314.98;224054;1264;140100;-94
2023/07/13 18:24:56;;;;;;;4.20;1.50;;;;;;;24.50;42.08;100320.92;224527;1264;138208;-96
2023/07/13 18:29:57;;;;;;;5.40;2.00;;;;;;;24.36;42.88;100327.81;224065;1264;139756;-94
2023/07/13 18:34:57;;;;;;;3.30;1.90;;;;;;;24.19;43.61;100330.38;224569;1264;137681;-95
2023/07/13 18:40:14;;;;;;;4.00;1.70;;;;;;;24.08;44.10;100337.45;223974;1264;139853;-96
2023/07/13 18:45:17;;;;;;;6.60;1.80;;;;;;;23.91;44.68;100338.50;224410;1268;137899;-95
2023/07/13 18:50:40;;;;;;;4.60;2.10;;;;;;;23.74;45.01;100342.09;224037;1264;139552;-95
2023/07/13 18:55:44;;;;;;;5.50;1.90;;;;;;;23.62;45.86;100348.80;224530;1265;138405;-93
2023/07/13 19:00:45;;;;;;;6.90;1.90;;;;;;;23.46;46.21;100355.49;224060;1265;139963;-95
2023/07/13 19:05:45;;;;;;;5.50;1.80;;;;;;;23.31;46.95;100352.29;224679;1264;94320;-94
2023/07/13 19:10:49;;;;;;;3.90;1.80;;;;;;;23.20;47.56;100365.48;223888;1264;139358;-95
2023/07/13 19:15:50;;;;;;;4.10;2.10;;;;;;;23.01;48.28;100377.16;224391;1264;137606;-95
2023/07/13 19:20:58;;;;;;;4.20;1.80;;;;;;;22.86;48.97;100383.09;223907;1264;139745;-95
2023/07/13 19:26:21;;;;;;;4.50;1.90;;;;;;;22.68;49.73;100379.55;224333;1264;138160;-95
2023/07/13 19:31:26;;;;;;;5.60;1.80;;;;;;;22.52;50.27;100392.04;223929;1264;137848;-94
2023/07/13 19:36:28;;;;;;;2.60;1.70;;;;;;;22.35;50.91;100394.74;224537;1267;94319;-95
2023/07/13 19:41:31;;;;;;;7.40;2.20;;;;;;;22.18;51.42;100399.55;223998;1266;139776;-95
2023/07/13 19:46:35;;;;;;;4.40;1.90;;;;;;;22.06;52.07;100401.77;224550;1264;137116;-95
2023/07/13 19:51:36;;;;;;;3.20;1.80;;;;;;;21.92;52.67;100399.36;223879;1264;139548;-95
2023/07/13 19:56:38;;;;;;;6.10;2.60;;;;;;;21.77;53.62;100406.46;224563;1265;138525;-96
2023/07/13 20:01:39;;;;;;;4.90;2.50;;;;;;;21.62;54.37;100410.27;223911;1268;140575;-92
2023/07/13 20:06:39;;;;;;;5.20;2.20;;;;;;;21.50;54.80;100412.27;224365;1264;138421;-92
2023/07/13 20:11:40;;;;;;;7.10;2.10;;;;;;;21.41;55.18;100421.60;224137;1264;140427;-92
2023/07/13 20:16:40;;;;;;;6.30;2.50;;;;;;;21.29;55.67;100419.20;224358;1264;137897;-92
2023/07/13 20:21:41;;;;;;;6.20;2.60;;;;;;;21.22;55.95;100423.27;224068;1264;141020;-92
2023/07/13 20:27:02;;;;;;;5.40;2.40;;;;;;;21.16;56.50;100425.46;224408;1264;138069;-92
2023/07/13 20:32:04;;;;;;;5.60;2.30;;;;;;;21.08;56.92;100427.48;223798;1264;141326;-91
2023/07/13 20:37:29;;;;;;;5.70;2.90;;;;;;;20.99;57.00;100431.36;224505;1264;137926;-92
2023/07/13 20:42:29;;;;;;;6.60;2.20;;;;;;;20.90;56.94;100434.27;223793;1264;139769;-94
2023/07/13 20:47:33;;;;;;;6.80;2.50;;;;;;;20.87;56.80;100437.95;224787;1264;94266;-94
2023/07/13 20:52:33;;;;;;;5.60;2.30;;;;;;;20.83;56.69;100444.47;223937;1264;140730;-93
2023/07/13 20:57:36;;;;;;;8.50;3.10;;;;;;;20.80;56.53;100452.24;224598;1264;138231;-92
2023/07/13 21:02:36;;;;;;;4.90;2.20;;;;;;;20.79;56.37;100454.90;224015;1264;139263;-93
2023/07/13 21:07:37;;;;;;;4.80;2.30;;;;;;;20.72;56.79;100459.82;224404;1264;138475;-93
2023/07/13 21:12:38;;;;;;;9.30;2.60;;;;;;;20.65;57.16;100457.95;223918;1264;140435;-92
2023/07/13 21:17:39;;;;;;;8.80;3.20;;;;;;;20.62;57.53;100466.22;224604;1264;94228;-92
2023/07/13 21:22:40;;;;;;;5.80;2.40;;;;;;;20.56;57.88;100470.61;223878;1264;138760;-91
2023/07/13 21:27:43;;;;;;;7.30;2.90;;;;;;;20.44;58.01;100488.52;224668;1264;138027;-92
2023/07/13 21:32:45;;;;;;;6.30;2.60;;;;;;;20.33;58.30;100492.52;223970;1264;139802;-92
2023/07/13 21:37:46;;;;;;;5.20;2.90;;;;;;;20.25;58.24;100496.48;224562;1264;138424;-91
2023/07/13 21:42:47;;;;;;;5.60;2.90;;;;;;;20.15;58.58;100511.28;223806;1264;364415;-92
2023/07/13 21:47:49;;;;;;;7.80;3.20;;;;;;;20.06;59.08;100514.64;224807;1264;94268;-95
2023/07/13 21:52:50;;;;;;;8.50;3.30;;;;;;;19.97;59.95;100520.45;223841;1264;139235;-92
2023/07/13 21:57:52;;;;;;;6.30;2.90;;;;;;;19.88;60.82;100527.93;224551;1264;137886;-96
2023/07/13 22:02:57;;;;;;;7.70;2.90;;;;;;;19.80;61.32;100532.99;224095;1264;138618;-93
2023/07/13 22:07:58;;;;;;;6.00;2.80;;;;;;;19.72;62.44;100539.05;224525;1264;138271;-95
2023/07/13 22:12:59;;;;;;;7.50;3.10;;;;;;;19.62;62.75;100540.30;223883;1264;139758;-95
2023/07/13 22:18:21;;;;;;;7.50;3.30;;;;;;;19.52;63.30;100540.23;224764;1264;94206;-93
2023/07/13 22:23:24;;;;;;;4.90;2.30;;;;;;;19.41;64.43;100539.14;223821;1264;138922;-94
2023/07/13 22:28:27;;;;;;;9.40;3.00;;;;;;;19.27;64.95;100535.86;224414;1264;137627;-93
2023/07/13 22:33:28;;;;;;;9.50;3.00;;;;;;;19.18;65.60;100535.72;223811;1263;139800;-96
2023/07/13 22:38:31;;;;;;;6.40;2.50;;;;;;;19.08;66.09;100540.27;224399;1263;138463;-94
2023/07/13 22:43:32;;;;;;;5.20;2.20;;;;;;;18.99;66.64;100540.13;224197;1264;139856;-95
2023/07/13 22:48:51;;;;;;;8.10;2.30;;;;;;;18.90;66.73;100541.84;224491;1264;138025;-96
2023/07/13 22:53:57;;;;;;;6.90;3.10;;;;;;;18.81;67.36;100538.43;224163;1263;139381;-96
2023/07/13 22:59:05;;;;;;;;;;;;;;;18.70;68.17;100550.14;224039;1264;139626;-96
2023/07/13 23:04:24;;;;;;;6.50;2.60;;;;;;;18.59;68.67;100555.92;224563;1263;123972;-95
2023/07/13 23:09:26;;;;;;;6.00;2.30;;;;;;;18.45;68.72;100549.43;223892;1263;140295;-95
2023/07/13 23:14:27;;;;;;;6.40;2.40;;;;;;;18.38;68.31;100551.32;224440;1263;137813;-94
2023/07/13 23:19:32;;;;;;;5.70;2.50;;;;;;;18.25;69.45;100551.60;224047;1263;139435;-93